createdAt,value
2018-12-21T00:01:08.077Z,90.90
2018-12-21T00:03:36.286Z,90.80
2018-12-21T00:06:04.676Z,90.70
2018-12-21T00:08:32.872Z,90.60
2018-12-21T00:11:01.076Z,90.60
2018-12-21T00:13:29.295Z,90.50
2018-12-21T00:15:57.488Z,90.40
2018-12-21T00:18:25.680Z,90.50
2018-12-21T00:20:53.885Z,90.60
2018-12-21T00:23:22.085Z,90.40
2018-12-21T00:25:50.331Z,90.40
2018-12-21T00:28:18.524Z,90.30
2018-12-21T00:30:46.020Z,90.10
2018-12-21T00:33:19.477Z,90.30
2018-12-21T00:35:52.997Z,90.20
2018-12-21T00:38:26.609Z,90.30
2018-12-21T00:41:00.248Z,90.10
2018-12-21T00:43:36.845Z,90.10
2018-12-21T00:46:10.644Z,90.00
2018-12-21T00:48:38.844Z,90.00
2018-12-21T00:51:07.140Z,90.00
2018-12-21T00:53:35.597Z,89.80
2018-12-21T00:56:04.180Z,89.90
2018-12-21T00:58:32.381Z,90.00
2018-12-21T01:01:00.969Z,90.00
2018-12-21T01:03:29.184Z,90.00
2018-12-21T01:05:57.622Z,89.90
2018-12-21T01:08:25.842Z,89.90
2018-12-21T01:10:54.057Z,89.80
2018-12-21T01:13:22.538Z,89.70
2018-12-21T01:15:51.032Z,89.70
2018-12-21T01:18:19.492Z,89.80
2018-12-21T01:20:47.785Z,89.70
2018-12-21T01:23:16.237Z,89.70
2018-12-21T01:25:44.525Z,89.80
2018-12-21T01:28:12.724Z,89.60
2018-12-21T01:30:41.004Z,89.80
2018-12-21T01:33:09.208Z,89.50
2018-12-21T01:35:37.408Z,89.60
2018-12-21T01:38:05.700Z,89.60
2018-12-21T01:40:33.888Z,89.30
2018-12-21T01:43:02.101Z,89.40
2018-12-21T01:45:30.321Z,89.20
2018-12-21T01:47:58.557Z,89.70
2018-12-21T01:50:26.773Z,90.00
2018-12-21T01:52:54.984Z,90.10
2018-12-21T01:55:23.472Z,90.00
2018-12-21T01:57:51.916Z,90.20
2018-12-21T02:00:20.287Z,90.20
2018-12-21T02:02:49.080Z,90.30
2018-12-21T02:05:17.700Z,90.40
2018-12-21T02:07:45.908Z,90.30
2018-12-21T02:10:14.197Z,90.40
2018-12-21T02:12:42.493Z,90.40
2018-12-21T02:15:10.789Z,90.40
2018-12-21T02:17:38.997Z,90.30
2018-12-21T02:20:07.450Z,90.20
2018-12-21T02:22:35.652Z,90.20
2018-12-21T02:25:04.067Z,90.10
2018-12-21T02:27:32.285Z,90.10
2018-12-21T02:30:00.498Z,90.20
2018-12-21T02:32:28.697Z,90.30
2018-12-21T02:34:56.881Z,90.00
2018-12-21T02:37:25.377Z,90.00
2018-12-21T02:39:53.661Z,90.10
2018-12-21T02:42:22.178Z,90.20
2018-12-21T02:44:50.368Z,90.20
2018-12-21T02:47:18.569Z,90.00
2018-12-21T02:49:46.760Z,89.90
2018-12-21T02:52:14.954Z,89.80
2018-12-21T02:54:43.143Z,89.50
2018-12-21T02:57:11.597Z,89.60
2018-12-21T02:59:39.784Z,89.40
2018-12-21T03:02:07.989Z,89.50
2018-12-21T03:04:36.198Z,89.80
2018-12-21T03:07:04.551Z,89.70
2018-12-21T03:09:32.774Z,89.30
2018-12-21T03:12:00.972Z,89.00
2018-12-21T03:14:29.183Z,89.90
2018-12-21T03:16:57.387Z,89.50
2018-12-21T03:19:25.956Z,89.40
2018-12-21T03:21:54.169Z,89.20
2018-12-21T03:24:22.364Z,89.20
2018-12-21T03:26:51.055Z,89.50
2018-12-21T03:29:19.261Z,89.40
2018-12-21T03:31:47.690Z,89.50
2018-12-21T03:34:16.238Z,89.50
2018-12-21T03:36:44.442Z,89.60
2018-12-21T03:39:12.652Z,90.00
2018-12-21T03:41:40.950Z,89.30
2018-12-21T03:44:09.215Z,89.70
2018-12-21T03:46:37.426Z,90.00
2018-12-21T03:49:05.945Z,90.00
2018-12-21T03:51:34.239Z,89.90
2018-12-21T03:54:02.768Z,90.00
2018-12-21T03:56:30.972Z,90.00
2018-12-21T03:58:59.168Z,90.10
2018-12-21T04:01:27.365Z,90.00
2018-12-21T04:03:55.588Z,90.00
2018-12-21T04:06:23.785Z,90.00
2018-12-21T04:08:52.249Z,90.00
2018-12-21T04:11:20.720Z,89.80
2018-12-21T04:13:48.930Z,90.00
2018-12-21T04:16:17.128Z,89.60
2018-12-21T04:18:45.318Z,89.50
2018-12-21T04:21:13.537Z,89.60
2018-12-21T04:23:41.770Z,89.80
2018-12-21T04:26:09.982Z,89.50
2018-12-21T04:28:38.176Z,89.50
2018-12-21T04:31:06.368Z,89.70
2018-12-21T04:33:34.557Z,90.00
2018-12-21T04:36:03.123Z,89.70
2018-12-21T04:38:31.545Z,89.40
2018-12-21T04:40:59.824Z,89.80
2018-12-21T04:43:28.026Z,89.50
2018-12-21T04:45:56.223Z,89.40
2018-12-21T04:48:24.507Z,89.20
2018-12-21T04:50:52.700Z,89.80
2018-12-21T04:53:20.908Z,90.00
2018-12-21T04:55:49.096Z,90.00
2018-12-21T04:58:17.358Z,89.90
2018-12-21T05:00:45.562Z,90.00
2018-12-21T05:03:13.867Z,90.10
2018-12-21T05:05:42.054Z,89.70
2018-12-21T05:08:10.261Z,89.80
2018-12-21T05:10:38.453Z,90.00
2018-12-21T05:13:07.253Z,89.70
2018-12-21T05:15:35.877Z,89.90
2018-12-21T05:18:04.465Z,90.00
2018-12-21T05:20:32.661Z,90.00
2018-12-21T05:23:00.865Z,90.10
2018-12-21T05:25:29.053Z,90.00
2018-12-21T05:27:57.256Z,90.00
2018-12-21T05:30:25.717Z,90.00
2018-12-21T05:32:53.930Z,89.30
2018-12-21T05:35:22.146Z,89.80
2018-12-21T05:37:50.402Z,89.70
2018-12-21T05:40:18.617Z,89.60
2018-12-21T05:42:46.819Z,89.30
2018-12-21T05:45:15.340Z,89.40
2018-12-21T05:47:43.564Z,89.50
2018-12-21T05:50:12.280Z,90.00
2018-12-21T05:52:40.572Z,98.30
2018-12-21T05:55:08.773Z,95.70
2018-12-21T05:57:37.317Z,93.20
2018-12-21T06:00:07.193Z,90.80
2018-12-21T06:02:35.629Z,90.90
2018-12-21T06:05:04.060Z,90.20
2018-12-21T06:07:33.909Z,87.10
2018-12-21T06:10:02.334Z,90.00
2018-12-21T06:12:30.532Z,86.10
2018-12-21T06:14:58.773Z,86.90
2018-12-21T06:17:27.027Z,88.10
2018-12-21T06:19:55.246Z,88.30
2018-12-21T06:22:23.716Z,88.20
2018-12-21T06:24:51.920Z,88.10
2018-12-21T06:27:20.261Z,88.10
2018-12-21T06:29:48.463Z,88.00
2018-12-21T06:32:17.413Z,87.90
2018-12-21T06:34:45.981Z,88.00
2018-12-21T06:37:14.189Z,87.60
2018-12-21T06:39:42.385Z,87.30
2018-12-21T06:42:10.901Z,87.50
2018-12-21T06:44:39.161Z,87.10
2018-12-21T06:47:07.452Z,87.30
2018-12-21T06:49:35.848Z,87.00
2018-12-21T06:52:04.069Z,86.60
2018-12-21T06:54:32.307Z,86.80
2018-12-21T06:57:00.758Z,87.20
2018-12-21T06:59:29.098Z,87.00
2018-12-21T07:01:57.484Z,87.30
2018-12-21T07:04:25.800Z,87.10
2018-12-21T07:06:53.996Z,87.30
2018-12-21T07:09:22.396Z,87.50
2018-12-21T07:11:50.853Z,87.70
2018-12-21T07:14:19.209Z,87.20
2018-12-21T07:16:47.696Z,87.00
2018-12-21T07:19:16.192Z,87.00
2018-12-21T07:21:44.389Z,86.50
2018-12-21T07:24:12.641Z,86.10
2018-12-21T07:26:41.484Z,86.60
2018-12-21T07:29:09.748Z,86.30
2018-12-21T07:31:38.569Z,87.20
2018-12-21T07:34:06.803Z,86.60
2018-12-21T07:36:35.081Z,86.00
2018-12-21T07:39:05.265Z,86.00
2018-12-21T07:41:33.472Z,86.00
2018-12-21T07:44:01.686Z,86.40
2018-12-21T07:46:29.879Z,86.20
2018-12-21T07:48:58.185Z,86.00
2018-12-21T07:51:26.820Z,85.60
2018-12-21T07:53:55.125Z,85.60
2018-12-21T07:56:23.488Z,85.90
2018-12-21T07:58:57.022Z,85.10
2018-12-21T08:01:22.273Z,85.20
2018-12-21T08:03:50.471Z,85.10
2018-12-21T08:06:18.664Z,85.00
2018-12-21T08:08:46.974Z,85.10
2018-12-21T08:11:15.378Z,85.00
2018-12-21T08:13:43.679Z,84.90
2018-12-21T08:16:12.074Z,85.20
2018-12-21T08:18:40.268Z,85.00
2018-12-21T08:21:08.468Z,85.40
2018-12-21T08:23:44.131Z,84.50
2018-12-21T08:26:07.001Z,84.40
2018-12-21T08:28:35.328Z,85.10
2018-12-21T08:31:03.620Z,84.60
2018-12-21T08:33:31.813Z,84.80
2018-12-21T08:36:00.268Z,83.70
2018-12-21T08:38:28.745Z,84.60
2018-12-21T08:40:58.235Z,84.40
2018-12-21T08:43:26.425Z,83.80
2018-12-21T08:45:54.692Z,83.50
2018-12-21T08:48:22.954Z,83.30
2018-12-21T08:50:51.302Z,83.00
2018-12-21T08:53:19.586Z,82.90
2018-12-21T08:55:47.969Z,82.60
2018-12-21T08:58:16.256Z,82.40
2018-12-21T09:00:44.553Z,82.50
2018-12-21T09:03:13.438Z,81.90
2018-12-21T09:05:41.752Z,79.40
2018-12-21T09:08:09.977Z,79.60
2018-12-21T09:10:38.264Z,77.70
2018-12-21T09:13:06.729Z,78.50
2018-12-21T09:15:34.933Z,78.00
2018-12-21T09:18:03.229Z,77.80
2018-12-21T09:20:31.620Z,78.50
2018-12-21T09:22:59.821Z,77.70
2018-12-21T09:25:28.021Z,78.80
2018-12-21T09:27:56.241Z,78.40
2018-12-21T09:30:24.567Z,78.60
2018-12-21T09:32:53.085Z,80.30
2018-12-21T09:35:21.285Z,82.60
2018-12-21T09:37:49.583Z,85.40
2018-12-21T09:40:17.877Z,89.20
2018-12-21T09:42:46.079Z,91.00
2018-12-21T09:45:14.267Z,92.50
2018-12-21T09:47:42.469Z,93.40
2018-12-21T09:50:10.929Z,94.40
2018-12-21T09:52:39.129Z,94.30
2018-12-21T09:55:07.793Z,95.30
2018-12-21T09:57:36.342Z,95.30
2018-12-21T10:00:06.509Z,95.50
2018-12-21T10:02:35.858Z,95.80
2018-12-21T10:05:05.005Z,96.20
2018-12-21T10:07:33.217Z,96.00
2018-12-21T10:10:01.494Z,96.50
2018-12-21T10:12:29.702Z,96.50
2018-12-21T10:14:57.925Z,96.70
2018-12-21T10:17:26.473Z,96.60
2018-12-21T10:19:54.673Z,96.70
2018-12-21T10:22:22.865Z,96.70
2018-12-21T10:24:51.064Z,97.50
2018-12-21T10:27:19.262Z,96.80
2018-12-21T10:29:47.456Z,97.30
2018-12-21T10:32:15.652Z,97.20
2018-12-21T10:34:43.856Z,97.40
2018-12-21T10:37:12.053Z,97.70
2018-12-21T10:39:40.509Z,97.40
2018-12-21T10:42:09.584Z,97.20
2018-12-21T10:44:38.056Z,97.50
2018-12-21T10:47:06.259Z,97.40
2018-12-21T10:49:34.453Z,97.60
2018-12-21T10:52:02.653Z,97.40
2018-12-21T10:54:30.868Z,97.70
2018-12-21T10:56:59.102Z,97.50
2018-12-21T10:59:27.353Z,97.90
2018-12-21T11:01:55.552Z,97.80
2018-12-21T11:04:23.757Z,98.00
2018-12-21T11:06:52.212Z,98.10
2018-12-21T11:09:20.417Z,98.20
2018-12-21T11:11:48.629Z,98.10
2018-12-21T11:14:16.933Z,97.90
2018-12-21T11:16:45.216Z,98.60
2018-12-21T11:19:13.444Z,98.60
2018-12-21T11:21:41.904Z,98.20
2018-12-21T11:24:10.100Z,98.40
2018-12-21T11:26:38.301Z,98.50
2018-12-21T11:29:06.500Z,98.10
2018-12-21T11:31:34.696Z,98.20
2018-12-21T11:34:03.284Z,98.70
2018-12-21T11:36:31.697Z,98.50
2018-12-21T11:38:59.898Z,98.70
2018-12-21T11:41:28.120Z,98.30
2018-12-21T11:43:56.338Z,98.70
2018-12-21T11:46:24.659Z,98.70
2018-12-21T11:48:53.811Z,99.00
2018-12-21T11:51:22.172Z,98.60
2018-12-21T11:53:50.406Z,99.00
2018-12-21T11:56:18.658Z,98.60
2018-12-21T11:58:46.858Z,98.30
2018-12-21T12:01:15.202Z,98.70
2018-12-21T12:03:43.405Z,98.50
2018-12-21T12:06:11.605Z,98.60
2018-12-21T12:08:39.796Z,99.00
2018-12-21T12:11:08.000Z,98.70
2018-12-21T12:13:36.197Z,98.90
2018-12-21T12:16:04.812Z,98.50
2018-12-21T12:18:33.006Z,98.50
2018-12-21T12:21:01.209Z,98.40
2018-12-21T12:23:29.414Z,98.10
2018-12-21T12:25:57.617Z,98.50
2018-12-21T12:28:25.812Z,98.20
2018-12-21T12:30:54.312Z,98.00
2018-12-21T12:33:22.657Z,97.90
2018-12-21T12:35:50.844Z,97.90
2018-12-21T12:38:19.025Z,98.30
2018-12-21T12:40:47.256Z,97.80
2018-12-21T12:43:15.482Z,97.80
2018-12-21T12:45:43.717Z,97.50
2018-12-21T12:48:12.047Z,97.50
2018-12-21T12:50:40.224Z,97.00
2018-12-21T12:53:08.699Z,96.80
2018-12-21T12:55:37.149Z,96.00
2018-12-21T12:58:05.625Z,95.90
2018-12-21T13:00:34.077Z,96.60
2018-12-21T13:03:02.341Z,96.30
2018-12-21T13:05:30.529Z,96.60
2018-12-21T13:07:58.717Z,95.60
2018-12-21T13:10:27.234Z,95.40
2018-12-21T13:12:55.716Z,95.20
2018-12-21T13:15:23.913Z,95.10
2018-12-21T13:17:52.105Z,95.30
2018-12-21T13:20:20.370Z,95.10
2018-12-21T13:22:48.567Z,95.40
2018-12-21T13:25:16.779Z,95.30
2018-12-21T13:27:44.991Z,95.10
2018-12-21T13:30:13.278Z,95.40
2018-12-21T13:32:41.485Z,95.30
2018-12-21T13:35:09.703Z,95.40
2018-12-21T13:37:38.236Z,95.20
2018-12-21T13:40:09.853Z,95.00
2018-12-21T13:42:38.165Z,95.00
2018-12-21T13:45:08.369Z,95.00
2018-12-21T13:47:36.552Z,94.90
2018-12-21T13:50:06.888Z,95.10
2018-12-21T13:52:35.339Z,94.80
2018-12-21T13:55:03.785Z,94.90
2018-12-21T13:57:31.973Z,95.00
2018-12-21T14:00:00.453Z,95.00
2018-12-21T14:02:28.660Z,94.80
2018-12-21T14:04:56.850Z,95.10
2018-12-21T14:07:25.038Z,95.00
2018-12-21T14:09:53.216Z,95.10
2018-12-21T14:12:21.426Z,95.00
2018-12-21T14:14:49.650Z,95.20
2018-12-21T14:17:17.937Z,95.30
2018-12-21T14:19:46.137Z,95.40
2018-12-21T14:22:14.700Z,95.90
2018-12-21T14:24:43.204Z,96.30
2018-12-21T14:27:11.393Z,95.60
2018-12-21T14:29:39.673Z,95.80
2018-12-21T14:32:07.853Z,95.90
2018-12-21T14:34:36.278Z,95.70
2018-12-21T14:37:04.645Z,95.80
2018-12-21T14:39:33.115Z,95.80
2018-12-21T14:42:01.402Z,95.70
2018-12-21T14:44:29.677Z,95.60
2018-12-21T14:46:58.192Z,95.50
2018-12-21T14:49:26.369Z,95.70
2018-12-21T14:51:54.674Z,95.80
2018-12-21T14:54:23.035Z,96.20
2018-12-21T14:56:51.232Z,96.40
2018-12-21T14:59:19.532Z,96.80
2018-12-21T15:01:47.721Z,96.40
2018-12-21T15:04:15.905Z,96.50
2018-12-21T15:06:44.089Z,96.60
2018-12-21T15:09:12.504Z,96.40
2018-12-21T15:11:40.810Z,96.30
2018-12-21T15:14:08.996Z,96.60
2018-12-21T15:16:37.168Z,96.60
2018-12-21T15:19:05.469Z,96.50
2018-12-21T15:21:33.653Z,96.40
2018-12-21T15:24:01.832Z,96.10
2018-12-21T15:26:30.293Z,96.00
2018-12-21T15:28:58.476Z,96.00
2018-12-21T15:31:26.892Z,95.80
2018-12-21T15:33:55.077Z,96.00
2018-12-21T15:36:23.360Z,96.40
2018-12-21T15:38:51.572Z,96.30
2018-12-21T15:41:19.790Z,96.50
2018-12-21T15:43:47.985Z,96.60
2018-12-21T15:46:16.176Z,96.90
2018-12-21T15:48:44.364Z,97.10
2018-12-21T15:51:13.060Z,97.20
2018-12-21T15:53:41.245Z,97.00
2018-12-21T15:56:09.425Z,96.80
2018-12-21T15:58:37.640Z,96.80
2018-12-21T16:01:05.927Z,96.50
2018-12-21T16:03:34.108Z,96.30
2018-12-21T16:06:02.661Z,96.30
2018-12-21T16:08:30.849Z,96.10
2018-12-21T16:10:59.377Z,95.80
2018-12-21T16:13:27.870Z,95.80
2018-12-21T16:15:56.361Z,95.60
2018-12-21T16:18:24.572Z,95.20
2018-12-21T16:20:52.768Z,95.10
2018-12-21T16:23:20.998Z,94.90
2018-12-21T16:25:49.202Z,94.90
2018-12-21T16:28:17.493Z,94.80
2018-12-21T16:30:45.676Z,94.80
2018-12-21T16:33:14.196Z,94.80
2018-12-21T16:35:42.386Z,95.00
2018-12-21T16:38:10.585Z,94.70
2018-12-21T16:40:39.133Z,94.70
2018-12-21T16:43:07.329Z,94.70
2018-12-21T16:45:35.566Z,94.90
2018-12-21T16:48:04.028Z,94.60
2018-12-21T16:50:32.221Z,94.70
2018-12-21T16:53:00.681Z,94.80
2018-12-21T16:55:28.960Z,94.80
2018-12-21T16:57:57.149Z,94.60
2018-12-21T17:00:25.329Z,94.60
2018-12-21T17:02:53.527Z,94.60
2018-12-21T17:05:21.717Z,94.60
2018-12-21T17:07:49.957Z,94.60
2018-12-21T17:10:21.452Z,94.60
2018-12-21T17:12:49.678Z,94.70
2018-12-21T17:15:17.865Z,94.60
2018-12-21T17:17:46.096Z,94.70
2018-12-21T17:20:14.374Z,94.70
2018-12-21T17:22:42.948Z,94.60
2018-12-21T17:25:13.049Z,94.80
2018-12-21T17:27:41.488Z,94.90
2018-12-21T17:30:11.536Z,94.80
2018-12-21T17:32:39.804Z,94.70
2018-12-21T17:35:08.908Z,94.90
2018-12-21T17:37:38.233Z,94.60
2018-12-21T17:40:08.937Z,94.90
2018-12-21T17:42:37.151Z,95.00
2018-12-21T17:45:06.937Z,95.10
2018-12-21T17:47:35.133Z,95.00
2018-12-21T17:50:03.468Z,95.00
2018-12-21T17:52:31.660Z,95.00
2018-12-21T17:54:59.853Z,94.80
2018-12-21T17:57:28.038Z,95.10
2018-12-21T17:59:56.332Z,94.90
2018-12-21T18:02:24.514Z,95.00
2018-12-21T18:04:52.700Z,95.00
2018-12-21T18:07:20.885Z,94.90
2018-12-21T18:09:49.100Z,95.00
2018-12-21T18:12:17.369Z,95.00
2018-12-21T18:14:45.791Z,95.00
2018-12-21T18:17:14.338Z,95.00
2018-12-21T18:19:42.535Z,95.00
2018-12-21T18:22:14.760Z,95.10
2018-12-21T18:24:43.298Z,94.90
2018-12-21T18:27:11.798Z,95.30
2018-12-21T18:29:41.816Z,94.90
2018-12-21T18:32:26.092Z,94.90
2018-12-21T18:34:54.299Z,94.90
2018-12-21T18:37:22.757Z,95.20
2018-12-21T18:39:50.953Z,95.10
2018-12-21T18:42:19.158Z,95.10
2018-12-21T18:44:47.353Z,95.00
2018-12-21T18:47:15.810Z,95.00
2018-12-21T18:49:44.013Z,95.40
2018-12-21T18:52:12.202Z,95.10
2018-12-21T18:54:40.397Z,95.10
2018-12-21T18:57:11.809Z,95.00
2018-12-21T18:59:40.026Z,94.90
2018-12-21T19:02:08.227Z,95.00
2018-12-21T19:04:36.416Z,95.00
2018-12-21T19:07:04.602Z,95.10
2018-12-21T19:09:32.820Z,95.10
2018-12-21T19:12:01.013Z,95.10
2018-12-21T19:14:29.301Z,95.10
2018-12-21T19:16:57.492Z,95.20
2018-12-21T19:19:26.206Z,95.20
2018-12-21T19:21:54.470Z,95.20
2018-12-21T19:24:22.657Z,95.30
2018-12-21T19:26:55.780Z,95.30
2018-12-21T19:29:21.341Z,95.30
2018-12-21T19:31:49.520Z,95.30
2018-12-21T19:34:17.749Z,95.40
2018-12-21T19:36:45.936Z,95.20
2018-12-21T19:39:14.288Z,95.30
2018-12-21T19:41:42.625Z,95.30
2018-12-21T19:44:11.254Z,95.30
2018-12-21T19:46:39.486Z,95.30
2018-12-21T19:49:07.673Z,95.40
2018-12-21T19:51:36.272Z,95.50
2018-12-21T19:54:04.466Z,95.50
2018-12-21T19:57:11.483Z,95.60
2018-12-21T19:59:39.805Z,95.60
2018-12-21T20:02:09.012Z,95.60
2018-12-21T20:04:38.381Z,95.70
2018-12-21T20:07:06.686Z,95.50
2018-12-21T20:09:34.889Z,95.40
2018-12-21T20:12:03.452Z,95.40
2018-12-21T20:14:31.718Z,95.40
2018-12-21T20:16:59.955Z,95.30
2018-12-21T20:19:28.187Z,95.40
2018-12-21T20:21:56.390Z,95.40
2018-12-21T20:24:28.446Z,95.50
2018-12-21T20:27:00.524Z,95.40
2018-12-21T20:29:28.712Z,95.40
2018-12-21T20:31:57.118Z,95.40
2018-12-21T20:34:25.853Z,95.40
2018-12-21T20:36:54.032Z,95.50
2018-12-21T20:39:26.577Z,95.50
2018-12-21T20:41:54.841Z,95.70
2018-12-21T20:44:23.127Z,95.60
2018-12-21T20:46:51.456Z,95.70
2018-12-21T20:49:19.690Z,95.70
2018-12-21T20:51:47.909Z,95.50
2018-12-21T20:54:16.132Z,95.60
2018-12-21T20:56:47.670Z,95.60
2018-12-21T20:59:19.528Z,95.70
2018-12-21T21:01:47.916Z,95.70
2018-12-21T21:04:16.332Z,95.60
2018-12-21T21:06:44.529Z,95.90
2018-12-21T21:09:13.777Z,95.60
2018-12-21T21:11:41.959Z,95.60
2018-12-21T21:14:11.992Z,95.60
2018-12-21T21:16:40.168Z,95.60
2018-12-21T21:19:08.443Z,95.60
2018-12-21T21:21:36.657Z,95.60
2018-12-21T21:24:05.116Z,95.60
2018-12-21T21:26:33.333Z,95.70
2018-12-21T21:29:01.520Z,95.60
2018-12-21T21:31:31.334Z,95.60
2018-12-21T21:33:59.547Z,95.60
2018-12-21T21:36:27.805Z,95.60
2018-12-21T21:38:56.001Z,95.50
2018-12-21T21:41:24.817Z,95.50
2018-12-21T21:43:53.001Z,95.50
2018-12-21T21:46:21.477Z,95.50
2018-12-21T21:48:49.660Z,95.50
2018-12-21T21:51:17.854Z,95.70
2018-12-21T21:53:46.072Z,95.50
2018-12-21T21:56:14.319Z,95.40
2018-12-21T21:58:42.492Z,95.40
2018-12-21T22:01:10.685Z,95.50
2018-12-21T22:03:38.880Z,95.50
2018-12-21T22:06:07.380Z,95.50
2018-12-21T22:08:35.574Z,95.60
2018-12-21T22:11:03.928Z,95.50
2018-12-21T22:13:32.116Z,95.60
2018-12-21T22:16:00.354Z,95.60
2018-12-21T22:18:28.599Z,95.60
2018-12-21T22:20:57.864Z,95.60
2018-12-21T22:23:26.453Z,95.50
2018-12-21T22:25:54.643Z,95.40
2018-12-21T22:28:22.817Z,95.50
2018-12-21T22:30:51.005Z,95.50
2018-12-21T22:33:19.187Z,95.60
2018-12-21T22:35:47.679Z,95.60
2018-12-21T22:38:15.965Z,95.60
2018-12-21T22:40:44.179Z,95.60
2018-12-21T22:43:12.365Z,95.70
2018-12-21T22:45:40.544Z,95.50
2018-12-21T22:48:08.733Z,95.60
2018-12-21T22:50:36.928Z,95.50
2018-12-21T22:53:05.129Z,95.60
2018-12-21T22:55:33.361Z,95.60
2018-12-21T22:58:01.577Z,95.60
2018-12-21T23:00:33.212Z,95.70
2018-12-21T23:03:01.732Z,95.60
2018-12-21T23:05:30.025Z,95.80
2018-12-21T23:07:58.306Z,95.80
2018-12-21T23:10:26.580Z,95.80
2018-12-21T23:12:54.776Z,95.80
2018-12-21T23:15:22.964Z,95.80
2018-12-21T23:17:51.154Z,95.90
2018-12-21T23:20:19.344Z,96.10
2018-12-21T23:22:47.617Z,96.30
2018-12-21T23:25:15.897Z,96.50
2018-12-21T23:27:44.077Z,97.00
2018-12-21T23:30:12.421Z,97.10
2018-12-21T23:32:40.622Z,97.10
2018-12-21T23:35:09.206Z,96.80
2018-12-21T23:37:37.681Z,96.90
2018-12-21T23:40:07.425Z,96.90
2018-12-21T23:42:36.888Z,97.20
2018-12-21T23:45:05.408Z,97.10
2018-12-21T23:47:33.609Z,97.10
2018-12-21T23:50:01.789Z,96.90
2018-12-21T23:52:30.060Z,96.80
2018-12-21T23:54:58.252Z,96.80
2018-12-21T23:57:26.808Z,96.80
2018-12-21T23:59:54.993Z,97.10
